sensor_id;sensor_type;location;lat;lon;timestamp;pressure;altitude;pressure_sealevel;temperature;humidity
52797;BME280;38666;43.348;12.584;2022-12-18T06:54:45;96854.16;;;6.82;100.00
52797;BME280;38666;43.348;12.584;2022-12-18T06:57:11;96859.53;;;6.95;100.00
52797;BME280;38666;43.348;12.584;2022-12-18T06:59:36;96859.41;;;7.20;100.00
52797;BME280;38666;43.348;12.584;2022-12-18T07:02:01;96852.06;;;7.53;100.00
52797;BME280;38666;43.348;12.584;2022-12-18T07:04:31;96861.88;;;7.90;100.00
52797;BME280;38666;43.348;12.584;2022-12-18T07:06:56;96855.41;;;8.14;98.58
52797;BME280;38666;43.348;12.584;2022-12-18T07:09:23;96857.53;;;8.41;95.34
52797;BME280;38666;43.348;12.584;2022-12-18T07:11:48;96869.22;;;8.77;94.06
52797;BME280;38666;43.348;12.584;2022-12-18T07:14:14;96866.03;;;9.15;91.45
52797;BME280;38666;43.348;12.584;2022-12-18T07:16:39;96867.84;;;9.78;83.95
52797;BME280;38666;43.348;12.584;2022-12-18T07:19:05;96871.22;;;9.94;83.83
52797;BME280;38666;43.348;12.584;2022-12-18T07:21:31;96864.41;;;10.62;76.73
52797;BME280;38666;43.348;12.584;2022-12-18T07:23:56;96869.66;;;10.20;79.86
52797;BME280;38666;43.348;12.584;2022-12-18T07:26:22;96874.16;;;10.63;79.30
52797;BME280;38666;43.348;12.584;2022-12-18T07:28:49;96872.44;;;10.82;76.35
52797;BME280;38666;43.348;12.584;2022-12-18T07:31:19;96878.91;;;11.01;74.63
52797;BME280;38666;43.348;12.584;2022-12-18T07:33:45;96889.72;;;11.66;70.99
52797;BME280;38666;43.348;12.584;2022-12-18T07:36:12;96895.59;;;11.72;69.68
52797;BME280;38666;43.348;12.584;2022-12-18T07:38:38;96903.25;;;11.13;72.58
52797;BME280;38666;43.348;12.584;2022-12-18T07:41:13;96902.13;;;11.56;71.18
52797;BME280;38666;43.348;12.584;2022-12-18T07:43:40;96902.41;;;11.89;69.53
52797;BME280;38666;43.348;12.584;2022-12-18T07:46:06;96898.03;;;12.30;67.29
52797;BME280;38666;43.348;12.584;2022-12-18T07:48:32;96919.50;;;12.24;68.36
52797;BME280;38666;43.348;12.584;2022-12-18T07:51:02;96906.81;;;12.57;66.02
52797;BME280;38666;43.348;12.584;2022-12-18T07:53:28;96925.66;;;12.70;65.59
52797;BME280;38666;43.348;12.584;2022-12-18T07:56:02;96922.31;;;13.06;63.73
52797;BME280;38666;43.348;12.584;2022-12-18T07:58:29;96927.03;;;13.12;63.31
52797;BME280;38666;43.348;12.584;2022-12-18T08:01:11;96936.22;;;13.75;59.80
52797;BME280;38666;43.348;12.584;2022-12-18T08:03:37;96945.66;;;13.70;59.29
52797;BME280;38666;43.348;12.584;2022-12-18T08:06:05;96937.03;;;14.38;58.67
52797;BME280;38666;43.348;12.584;2022-12-18T08:08:32;96935.00;;;14.86;56.26
52797;BME280;38666;43.348;12.584;2022-12-18T08:10:58;96941.28;;;14.75;54.75
52797;BME280;38666;43.348;12.584;2022-12-18T08:13:23;96947.94;;;14.89;54.76
52797;BME280;38666;43.348;12.584;2022-12-18T08:16:06;96951.97;;;14.37;56.04
52797;BME280;38666;43.348;12.584;2022-12-18T08:18:33;96959.00;;;14.08;57.74
52797;BME280;38666;43.348;12.584;2022-12-18T08:21:10;96958.59;;;13.77;58.64
52797;BME280;38666;43.348;12.584;2022-12-18T08:23:37;96960.97;;;13.97;58.30
52797;BME280;38666;43.348;12.584;2022-12-18T08:26:02;96967.59;;;14.76;57.06
52797;BME280;38666;43.348;12.584;2022-12-18T08:28:28;96968.47;;;15.63;53.31
52797;BME280;38666;43.348;12.584;2022-12-18T08:30:53;96974.84;;;16.17;49.79
52797;BME280;38666;43.348;12.584;2022-12-18T08:33:19;96979.66;;;16.02;49.77
52797;BME280;38666;43.348;12.584;2022-12-18T08:35:44;96990.34;;;16.45;49.09
52797;BME280;38666;43.348;12.584;2022-12-18T08:38:10;96994.19;;;16.59;49.14
52797;BME280;38666;43.348;12.584;2022-12-18T08:40:35;96988.63;;;16.63;49.06
52797;BME280;38666;43.348;12.584;2022-12-18T08:43:01;97001.56;;;16.23;49.00
52797;BME280;38666;43.348;12.584;2022-12-18T08:45:44;97002.09;;;15.10;52.27
52797;BME280;38666;43.348;12.584;2022-12-18T08:48:10;97003.31;;;15.95;51.97
52797;BME280;38666;43.348;12.584;2022-12-18T08:50:35;97010.28;;;16.64;48.00
52797;BME280;38666;43.348;12.584;2022-12-18T08:53:01;97002.25;;;16.35;48.05
52797;BME280;38666;43.348;12.584;2022-12-18T08:55:26;97009.13;;;17.04;47.60
52797;BME280;38666;43.348;12.584;2022-12-18T08:57:52;97000.44;;;16.63;47.70
52797;BME280;38666;43.348;12.584;2022-12-18T09:00:17;97003.94;;;17.06;47.43
52797;BME280;38666;43.348;12.584;2022-12-18T09:02:43;97009.38;;;16.32;48.26
52797;BME280;38666;43.348;12.584;2022-12-18T09:05:08;97012.31;;;17.37;46.80
52797;BME280;38666;43.348;12.584;2022-12-18T09:07:35;97018.94;;;17.43;45.36
52797;BME280;38666;43.348;12.584;2022-12-18T09:10:00;97016.09;;;17.51;45.27
52797;BME280;38666;43.348;12.584;2022-12-18T09:12:26;97027.41;;;17.60;45.06
52797;BME280;38666;43.348;12.584;2022-12-18T09:14:51;97021.44;;;17.65;44.81
52797;BME280;38666;43.348;12.584;2022-12-18T09:17:16;97025.84;;;18.46;43.95
52797;BME280;38666;43.348;12.584;2022-12-18T09:19:42;97024.03;;;18.35;42.92
52797;BME280;38666;43.348;12.584;2022-12-18T09:22:08;97031.00;;;19.16;41.68
52797;BME280;38666;43.348;12.584;2022-12-18T09:24:34;97018.94;;;19.26;41.20
52797;BME280;38666;43.348;12.584;2022-12-18T09:27:00;97026.31;;;19.53;40.40
52797;BME280;38666;43.348;12.584;2022-12-18T09:29:26;97024.13;;;19.44;40.23
52797;BME280;38666;43.348;12.584;2022-12-18T09:31:51;97012.56;;;20.40;38.39
52797;BME280;38666;43.348;12.584;2022-12-18T09:34:17;97013.75;;;19.85;38.87
52797;BME280;38666;43.348;12.584;2022-12-18T09:36:42;97017.31;;;19.05;39.84
52797;BME280;38666;43.348;12.584;2022-12-18T09:39:08;97012.63;;;19.46;40.83
52797;BME280;38666;43.348;12.584;2022-12-18T09:47:18;97020.63;;;20.98;37.00
52797;BME280;38666;43.348;12.584;2022-12-18T09:50:35;97028.06;;;21.47;35.87
52797;BME280;38666;43.348;12.584;2022-12-18T09:52:41;97013.75;;;21.75;35.66
52797;BME280;38666;43.348;12.584;2022-12-18T09:55:28;97017.25;;;22.18;34.90
52797;BME280;38666;43.348;12.584;2022-12-18T09:58:00;97011.06;;;23.56;32.61
52797;BME280;38666;43.348;12.584;2022-12-18T10:00:28;97021.53;;;23.74;31.82
52797;BME280;38666;43.348;12.584;2022-12-18T10:02:59;97021.69;;;22.29;33.43
52797;BME280;38666;43.348;12.584;2022-12-18T10:05:58;97019.75;;;23.58;32.09
52797;BME280;38666;43.348;12.584;2022-12-18T10:08:36;97015.63;;;23.63;31.79
52797;BME280;38666;43.348;12.584;2022-12-18T10:13:57;97013.03;;;21.87;35.53
52797;BME280;38666;43.348;12.584;2022-12-18T10:16:36;97015.25;;;22.93;33.05
52797;BME280;38666;43.348;12.584;2022-12-18T10:27:23;97022.75;;;17.18;43.99
52797;BME280;38666;43.348;12.584;2022-12-18T10:29:49;97023.94;;;16.79;43.73
52797;BME280;38666;43.348;12.584;2022-12-18T10:32:29;97031.63;;;15.92;46.35
52797;BME280;38666;43.348;12.584;2022-12-18T10:34:57;97018.19;;;15.23;47.74
52797;BME280;38666;43.348;12.584;2022-12-18T10:37:27;97021.78;;;15.01;48.54
52797;BME280;38666;43.348;12.584;2022-12-18T10:40:10;97037.91;;;14.70;49.66
52797;BME280;38666;43.348;12.584;2022-12-18T10:42:36;97026.53;;;14.61;49.72
52797;BME280;38666;43.348;12.584;2022-12-18T10:45:11;97035.88;;;13.87;52.50
52797;BME280;38666;43.348;12.584;2022-12-18T10:47:42;97040.69;;;13.19;54.68
52797;BME280;38666;43.348;12.584;2022-12-18T10:50:19;97036.97;;;13.53;53.21
52797;BME280;38666;43.348;12.584;2022-12-18T10:52:53;97034.25;;;13.64;52.96
52797;BME280;38666;43.348;12.584;2022-12-18T10:55:19;97029.53;;;13.60;53.29
52797;BME280;38666;43.348;12.584;2022-12-18T10:57:45;97022.28;;;13.19;54.21
52797;BME280;38666;43.348;12.584;2022-12-18T11:00:28;97017.22;;;13.29;54.34
52797;BME280;38666;43.348;12.584;2022-12-18T11:02:54;97030.03;;;14.21;52.96
52797;BME280;38666;43.348;12.584;2022-12-18T11:07:52;97022.81;;;17.81;42.82
52797;BME280;38666;43.348;12.584;2022-12-18T11:10:26;97023.44;;;16.91;43.85
52797;BME280;38666;43.348;12.584;2022-12-18T11:12:53;97007.84;;;16.73;44.61
52797;BME280;38666;43.348;12.584;2022-12-18T11:15:27;97018.34;;;17.60;42.48
52797;BME280;38666;43.348;12.584;2022-12-18T11:17:54;97007.44;;;17.49;43.12
52797;BME280;38666;43.348;12.584;2022-12-18T11:23:05;97008.84;;;15.92;45.89
52797;BME280;38666;43.348;12.584;2022-12-18T11:25:36;97012.78;;;15.87;46.51
52797;BME280;38666;43.348;12.584;2022-12-18T11:28:05;97007.00;;;15.70;47.07
52797;BME280;38666;43.348;12.584;2022-12-18T11:30:33;97001.09;;;15.64;46.90
52797;BME280;38666;43.348;12.584;2022-12-18T11:33:20;96996.66;;;14.92;49.84
52797;BME280;38666;43.348;12.584;2022-12-18T11:35:52;96990.03;;;16.82;44.69
52797;BME280;38666;43.348;12.584;2022-12-18T11:38:23;96991.88;;;17.31;44.54
52797;BME280;38666;43.348;12.584;2022-12-18T11:43:58;96984.84;;;19.29;38.66
52797;BME280;38666;43.348;12.584;2022-12-18T11:46:32;96993.06;;;17.61;41.17
52797;BME280;38666;43.348;12.584;2022-12-18T11:49:22;96985.53;;;17.34;43.81
52797;BME280;38666;43.348;12.584;2022-12-18T11:52:01;96980.59;;;16.76;43.41
52797;BME280;38666;43.348;12.584;2022-12-18T11:54:29;96973.31;;;16.96;43.59
52797;BME280;38666;43.348;12.584;2022-12-18T11:57:10;96977.88;;;17.14;43.33
52797;BME280;38666;43.348;12.584;2022-12-18T11:59:52;96978.94;;;16.85;43.24
52797;BME280;38666;43.348;12.584;2022-12-18T12:13:37;96980.09;;;19.30;39.20
52797;BME280;38666;43.348;12.584;2022-12-18T12:21:45;96982.91;;;23.63;31.60
52797;BME280;38666;43.348;12.584;2022-12-18T12:30:21;96978.00;;;24.69;29.31
52797;BME280;38666;43.348;12.584;2022-12-18T12:38:13;96976.06;;;26.46;26.91
52797;BME280;38666;43.348;12.584;2022-12-18T12:40:46;96973.31;;;26.03;27.11
52797;BME280;38666;43.348;12.584;2022-12-18T12:43:21;96968.16;;;26.84;26.20
52797;BME280;38666;43.348;12.584;2022-12-18T12:46:03;96973.34;;;27.16;25.95
52797;BME280;38666;43.348;12.584;2022-12-18T12:48:46;96966.34;;;26.56;26.01
52797;BME280;38666;43.348;12.584;2022-12-18T12:51:17;96975.41;;;26.51;26.37
52797;BME280;38666;43.348;12.584;2022-12-18T12:53:44;96970.75;;;25.80;27.64
52797;BME280;38666;43.348;12.584;2022-12-18T12:56:13;96968.59;;;25.75;27.13
52797;BME280;38666;43.348;12.584;2022-12-18T12:58:58;96973.19;;;26.21;27.20
52797;BME280;38666;43.348;12.584;2022-12-18T13:09:11;96979.53;;;26.80;26.20
52797;BME280;38666;43.348;12.584;2022-12-18T13:11:44;96979.63;;;26.71;25.92
52797;BME280;38666;43.348;12.584;2022-12-18T13:22:51;96994.53;;;26.19;26.13
52797;BME280;38666;43.348;12.584;2022-12-18T13:28:01;97000.34;;;23.77;29.45
52797;BME280;38666;43.348;12.584;2022-12-18T13:35:41;96990.59;;;19.76;35.90
52797;BME280;38666;43.348;12.584;2022-12-18T13:41:26;96993.44;;;20.76;35.21
52797;BME280;38666;43.348;12.584;2022-12-18T13:43:54;97001.22;;;22.22;32.10
52797;BME280;38666;43.348;12.584;2022-12-18T13:46:46;97008.59;;;22.78;31.66
52797;BME280;38666;43.348;12.584;2022-12-18T13:51:42;97014.75;;;23.30;30.64
52797;BME280;38666;43.348;12.584;2022-12-18T13:56:52;97025.03;;;23.20;30.01
52797;BME280;38666;43.348;12.584;2022-12-18T13:59:26;97021.44;;;22.62;30.46
52797;BME280;38666;43.348;12.584;2022-12-18T14:02:00;97026.63;;;23.21;30.27
52797;BME280;38666;43.348;12.584;2022-12-18T14:04:30;97026.63;;;24.30;28.94
52797;BME280;38666;43.348;12.584;2022-12-18T14:07:17;97028.53;;;24.11;28.58
52797;BME280;38666;43.348;12.584;2022-12-18T14:09:46;97038.56;;;23.99;28.98
52797;BME280;38666;43.348;12.584;2022-12-18T14:12:20;97034.63;;;23.87;29.04
52797;BME280;38666;43.348;12.584;2022-12-18T14:15:07;97016.38;;;24.27;28.66
52797;BME280;38666;43.348;12.584;2022-12-18T14:17:40;97012.75;;;23.31;29.28
52797;BME280;38666;43.348;12.584;2022-12-18T14:20:15;97015.53;;;23.31;29.60
52797;BME280;38666;43.348;12.584;2022-12-18T14:22:44;97021.28;;;23.37;29.24
52797;BME280;38666;43.348;12.584;2022-12-18T14:25:25;97024.91;;;22.66;30.12
52797;BME280;38666;43.348;12.584;2022-12-18T14:30:43;97031.19;;;23.15;30.53
52797;BME280;38666;43.348;12.584;2022-12-18T14:35:59;97029.44;;;22.73;30.71
52797;BME280;38666;43.348;12.584;2022-12-18T14:38:36;97037.84;;;21.52;32.35
52797;BME280;38666;43.348;12.584;2022-12-18T14:41:03;97039.31;;;20.80;33.43
52797;BME280;38666;43.348;12.584;2022-12-18T14:43:35;97047.47;;;20.54;34.28
52797;BME280;38666;43.348;12.584;2022-12-18T14:46:02;97041.72;;;20.28;34.17
52797;BME280;38666;43.348;12.584;2022-12-18T14:48:33;97048.34;;;20.68;33.69
52797;BME280;38666;43.348;12.584;2022-12-18T14:51:03;97044.13;;;19.72;35.45
52797;BME280;38666;43.348;12.584;2022-12-18T14:53:34;97052.66;;;19.21;36.28
52797;BME280;38666;43.348;12.584;2022-12-18T14:56:02;97046.00;;;18.19;37.93
52797;BME280;38666;43.348;12.584;2022-12-18T14:58:28;97051.59;;;18.11;38.79
52797;BME280;38666;43.348;12.584;2022-12-18T15:00:54;97052.09;;;17.75;39.90
52797;BME280;38666;43.348;12.584;2022-12-18T15:03:21;97042.09;;;17.18;39.74
52797;BME280;38666;43.348;12.584;2022-12-18T15:05:47;97049.81;;;16.92;41.80
52797;BME280;38666;43.348;12.584;2022-12-18T15:08:36;97049.06;;;16.42;42.13
52797;BME280;38666;43.348;12.584;2022-12-18T15:11:02;97053.66;;;15.92;43.47
52797;BME280;38666;43.348;12.584;2022-12-18T15:13:28;97053.25;;;14.49;47.24
52797;BME280;38666;43.348;12.584;2022-12-18T15:15:56;97051.66;;;13.19;49.92
52797;BME280;38666;43.348;12.584;2022-12-18T15:18:41;97053.28;;;12.63;52.70
52797;BME280;38666;43.348;12.584;2022-12-18T15:21:09;97062.03;;;11.97;54.36
52797;BME280;38666;43.348;12.584;2022-12-18T15:23:38;97062.94;;;11.39;57.34
52797;BME280;38666;43.348;12.584;2022-12-18T15:26:12;97067.19;;;11.67;57.11
52797;BME280;38666;43.348;12.584;2022-12-18T15:28:49;97065.13;;;10.99;59.27
52797;BME280;38666;43.348;12.584;2022-12-18T15:36:17;97069.81;;;10.24;63.75
52797;BME280;38666;43.348;12.584;2022-12-18T15:38:47;97071.53;;;9.90;65.08
52797;BME280;38666;43.348;12.584;2022-12-18T15:41:14;97068.22;;;9.60;67.35
52797;BME280;38666;43.348;12.584;2022-12-18T15:43:40;97067.94;;;9.46;67.32
52797;BME280;38666;43.348;12.584;2022-12-18T15:46:12;97074.63;;;9.48;68.26
52797;BME280;38666;43.348;12.584;2022-12-18T15:48:46;97074.47;;;9.41;69.00
52797;BME280;38666;43.348;12.584;2022-12-18T15:51:18;97069.00;;;9.21;69.87
52797;BME280;38666;43.348;12.584;2022-12-18T15:53:46;97073.47;;;8.94;71.40
52797;BME280;38666;43.348;12.584;2022-12-18T15:56:13;97081.28;;;8.95;71.63
52797;BME280;38666;43.348;12.584;2022-12-18T15:58:58;97081.84;;;8.85;73.13
52797;BME280;38666;43.348;12.584;2022-12-18T16:01:26;97081.03;;;8.84;73.24
52797;BME280;38666;43.348;12.584;2022-12-18T16:03:53;97075.69;;;8.88;72.70
52797;BME280;38666;43.348;12.584;2022-12-18T16:06:19;97077.06;;;8.98;72.36
52797;BME280;38666;43.348;12.584;2022-12-18T16:08:45;97077.63;;;8.71;73.43
52797;BME280;38666;43.348;12.584;2022-12-18T16:11:30;97063.81;;;8.48;74.46
52797;BME280;38666;43.348;12.584;2022-12-18T16:14:27;97078.66;;;8.50;74.70
52797;BME280;38666;43.348;12.584;2022-12-18T16:16:58;97086.56;;;8.39;75.26
52797;BME280;38666;43.348;12.584;2022-12-18T16:19:25;97079.63;;;8.26;75.56
52797;BME280;38666;43.348;12.584;2022-12-18T16:21:52;97085.69;;;8.19;76.39
52797;BME280;38666;43.348;12.584;2022-12-18T16:24:25;97092.34;;;8.22;76.43
52797;BME280;38666;43.348;12.584;2022-12-18T16:26:52;97094.16;;;8.01;77.46
52797;BME280;38666;43.348;12.584;2022-12-18T16:29:18;97096.88;;;8.01;77.33
52797;BME280;38666;43.348;12.584;2022-12-18T16:31:44;97100.09;;;7.91;78.12
52797;BME280;38666;43.348;12.584;2022-12-18T16:34:17;97102.13;;;7.94;78.25
52797;BME280;38666;43.348;12.584;2022-12-18T16:36:46;97094.59;;;7.75;79.36
52797;BME280;38666;43.348;12.584;2022-12-18T16:39:12;97099.81;;;7.80;79.73
52797;BME280;38666;43.348;12.584;2022-12-18T16:41:37;97098.59;;;7.65;79.52
52797;BME280;38666;43.348;12.584;2022-12-18T16:44:03;97095.81;;;7.49;80.86
52797;BME280;38666;43.348;12.584;2022-12-18T16:46:29;97104.34;;;7.47;80.95
52797;BME280;38666;43.348;12.584;2022-12-18T16:48:57;97092.59;;;7.30;82.06
52797;BME280;38666;43.348;12.584;2022-12-18T16:51:23;97105.28;;;7.26;82.51
52797;BME280;38666;43.348;12.584;2022-12-18T16:53:49;97101.28;;;7.36;82.38
52797;BME280;38666;43.348;12.584;2022-12-18T16:56:14;97099.84;;;7.39;81.95
52797;BME280;38666;43.348;12.584;2022-12-18T16:58:40;97106.63;;;7.32;81.98
52797;BME280;38666;43.348;12.584;2022-12-18T17:01:12;97109.94;;;7.26;82.34
52797;BME280;38666;43.348;12.584;2022-12-18T17:03:37;97105.16;;;7.35;82.09
52797;BME280;38666;43.348;12.584;2022-12-18T17:06:06;97121.13;;;7.24;82.11
52797;BME280;38666;43.348;12.584;2022-12-18T17:08:31;97126.78;;;7.31;82.42
52797;BME280;38666;43.348;12.584;2022-12-18T17:11:04;97127.69;;;7.23;82.30
52797;BME280;38666;43.348;12.584;2022-12-18T17:13:30;97132.03;;;7.12;82.42
52797;BME280;38666;43.348;12.584;2022-12-18T17:16:01;97119.91;;;7.09;82.79
52797;BME280;38666;43.348;12.584;2022-12-18T17:18:27;97120.69;;;7.09;82.79
52797;BME280;38666;43.348;12.584;2022-12-18T17:20:58;97125.03;;;6.98;83.20
52797;BME280;38666;43.348;12.584;2022-12-18T17:23:24;97127.75;;;6.98;83.39
52797;BME280;38666;43.348;12.584;2022-12-18T17:25:53;97120.72;;;6.97;83.53
52797;BME280;38666;43.348;12.584;2022-12-18T17:28:19;97128.28;;;7.04;83.64
52797;BME280;38666;43.348;12.584;2022-12-18T17:30:46;97126.13;;;6.97;83.13
52797;BME280;38666;43.348;12.584;2022-12-18T17:33:11;97124.22;;;6.85;83.89
52797;BME280;38666;43.348;12.584;2022-12-18T17:35:37;97128.16;;;6.75;84.39
52797;BME280;38666;43.348;12.584;2022-12-18T17:38:02;97135.88;;;6.73;84.67
52797;BME280;38666;43.348;12.584;2022-12-18T17:40:28;97136.78;;;6.77;84.33
52797;BME280;38666;43.348;12.584;2022-12-18T17:42:53;97129.53;;;6.69;85.50
52797;BME280;38666;43.348;12.584;2022-12-18T17:45:18;97120.69;;;6.59;85.56
52797;BME280;38666;43.348;12.584;2022-12-18T17:47:44;97122.06;;;6.66;85.69
52797;BME280;38666;43.348;12.584;2022-12-18T17:50:10;97124.56;;;6.58;85.41
52797;BME280;38666;43.348;12.584;2022-12-18T17:52:35;97132.34;;;6.60;85.79
52797;BME280;38666;43.348;12.584;2022-12-18T17:55:01;97134.03;;;6.52;85.64
52797;BME280;38666;43.348;12.584;2022-12-18T17:57:26;97149.06;;;6.49;86.84
52797;BME280;38666;43.348;12.584;2022-12-18T17:59:52;97152.56;;;6.50;85.82
52797;BME280;38666;43.348;12.584;2022-12-18T18:02:17;97142.38;;;6.34;86.86
52797;BME280;38666;43.348;12.584;2022-12-18T18:04:43;97149.50;;;6.39;87.18
52797;BME280;38666;43.348;12.584;2022-12-18T18:07:08;97149.41;;;6.35;87.34
52797;BME280;38666;43.348;12.584;2022-12-18T18:09:34;97161.56;;;6.29;87.39
52797;BME280;38666;43.348;12.584;2022-12-18T18:11:59;97170.16;;;6.31;87.69
52797;BME280;38666;43.348;12.584;2022-12-18T18:14:43;97160.78;;;6.29;87.57
52797;BME280;38666;43.348;12.584;2022-12-18T18:17:09;97166.09;;;6.25;88.33
52797;BME280;38666;43.348;12.584;2022-12-18T18:19:34;97182.59;;;6.32;87.06
52797;BME280;38666;43.348;12.584;2022-12-18T18:22:00;97179.44;;;6.30;87.79
52797;BME280;38666;43.348;12.584;2022-12-18T18:24:26;97180.09;;;6.27;87.95
52797;BME280;38666;43.348;12.584;2022-12-18T18:26:51;97184.88;;;6.30;87.87
52797;BME280;38666;43.348;12.584;2022-12-18T18:29:23;97194.81;;;6.26;88.01
52797;BME280;38666;43.348;12.584;2022-12-18T18:31:49;97196.13;;;6.20;88.42
52797;BME280;38666;43.348;12.584;2022-12-18T18:34:17;97201.03;;;6.26;88.78
52797;BME280;38666;43.348;12.584;2022-12-18T18:36:43;97199.31;;;6.22;88.34
52797;BME280;38666;43.348;12.584;2022-12-18T18:39:10;97203.41;;;6.28;88.17
52797;BME280;38666;43.348;12.584;2022-12-18T18:41:36;97202.09;;;6.13;88.94
52797;BME280;38666;43.348;12.584;2022-12-18T18:44:01;97216.91;;;6.16;88.12
52797;BME280;38666;43.348;12.584;2022-12-18T18:46:27;97216.47;;;6.13;88.41
52797;BME280;38666;43.348;12.584;2022-12-18T18:48:52;97205.16;;;6.11;88.82
52797;BME280;38666;43.348;12.584;2022-12-18T18:51:18;97204.69;;;6.09;88.75
